createdAt,value
2022-12-09T00:00:11.991Z,19.53
2022-12-09T00:02:40.803Z,18.40
2022-12-09T00:05:10.298Z,18.57
2022-12-09T00:07:38.826Z,17.90
2022-12-09T00:10:09.173Z,19.07
2022-12-09T00:12:37.451Z,19.17
2022-12-09T00:15:08.860Z,19.20
2022-12-09T00:17:37.269Z,23.50
2022-12-09T00:20:07.712Z,20.57
2022-12-09T00:22:36.431Z,19.53
2022-12-09T00:25:04.896Z,18.43
2022-12-09T00:27:33.383Z,18.63
2022-12-09T00:30:01.622Z,17.17
2022-12-09T00:32:31.468Z,17.40
2022-12-09T00:34:59.793Z,16.33
2022-12-09T00:37:28.170Z,15.50
2022-12-09T00:39:56.409Z,14.83
2022-12-09T00:42:24.675Z,15.80
2022-12-09T00:44:52.886Z,14.67
2022-12-09T00:47:21.433Z,15.60
2022-12-09T00:49:51.274Z,15.67
2022-12-09T00:52:19.665Z,14.67
2022-12-09T00:54:48.195Z,15.90
2022-12-09T00:57:16.492Z,14.47
2022-12-09T00:59:45.043Z,14.63
2022-12-09T01:02:13.675Z,15.07
2022-12-09T01:04:42.008Z,16.10
2022-12-09T01:07:12.973Z,16.20
2022-12-09T01:09:41.278Z,15.37
2022-12-09T01:12:12.163Z,14.20
2022-12-09T01:14:40.784Z,14.87
2022-12-09T01:17:09.358Z,15.07
2022-12-09T01:19:37.814Z,15.20
2022-12-09T01:22:06.022Z,15.87
2022-12-09T01:24:35.642Z,14.90
2022-12-09T01:27:03.978Z,16.70
2022-12-09T01:29:32.257Z,14.50
2022-12-09T01:32:00.974Z,16.27
2022-12-09T01:34:29.477Z,14.63
2022-12-09T01:36:57.913Z,17.00
2022-12-09T01:39:26.303Z,15.10
2022-12-09T01:41:56.089Z,15.83
2022-12-09T01:44:27.289Z,15.60
2022-12-09T01:46:57.620Z,14.97
2022-12-09T01:49:30.338Z,16.17
2022-12-09T01:52:06.715Z,16.17
2022-12-09T01:54:35.394Z,16.67
2022-12-09T01:57:06.540Z,16.93
2022-12-09T01:59:35.916Z,16.37
2022-12-09T02:02:06.911Z,16.50
2022-12-09T02:04:41.302Z,16.27
2022-12-09T02:07:11.837Z,16.07
2022-12-09T02:09:40.998Z,17.40
2022-12-09T02:12:15.404Z,16.97
2022-12-09T02:14:51.133Z,16.47
2022-12-09T02:17:31.166Z,16.50
2022-12-09T02:20:10.545Z,17.83
2022-12-09T02:22:44.642Z,17.23
2022-12-09T02:25:25.319Z,17.90
2022-12-09T02:28:36.202Z,16.90
2022-12-09T02:31:21.517Z,16.33
2022-12-09T02:34:19.010Z,18.80
2022-12-09T02:37:00.421Z,17.13
2022-12-09T02:39:35.556Z,18.10
2022-12-09T02:42:06.116Z,18.00
2022-12-09T02:44:36.683Z,17.77
2022-12-09T02:47:07.995Z,18.13
2022-12-09T02:49:40.293Z,17.33
2022-12-09T02:52:09.749Z,19.10
2022-12-09T02:54:40.241Z,17.50
2022-12-09T02:57:24.651Z,19.30
2022-12-09T02:59:53.080Z,18.07
2022-12-09T03:02:28.432Z,17.37
2022-12-09T03:05:11.311Z,16.77
2022-12-09T03:07:46.282Z,18.40
2022-12-09T03:10:22.009Z,18.37
2022-12-09T03:12:56.441Z,18.53
2022-12-09T03:15:29.211Z,17.23
2022-12-09T03:17:59.896Z,20.07
2022-12-09T03:20:31.774Z,18.60
2022-12-09T03:23:03.531Z,20.07
2022-12-09T03:25:35.711Z,17.47
2022-12-09T03:28:07.443Z,18.37
2022-12-09T03:30:42.007Z,18.90
2022-12-09T03:33:11.500Z,18.63
2022-12-09T03:35:45.209Z,18.27
2022-12-09T03:38:18.809Z,19.33
2022-12-09T03:40:52.040Z,18.10
2022-12-09T03:43:25.504Z,19.10
2022-12-09T03:45:54.688Z,19.77
2022-12-09T03:48:25.105Z,19.07
2022-12-09T03:51:01.170Z,18.60
2022-12-09T03:53:37.922Z,18.67
2022-12-09T03:56:16.826Z,20.70
2022-12-09T03:58:49.167Z,19.40
2022-12-09T04:01:18.441Z,19.03
2022-12-09T04:03:50.825Z,18.57
2022-12-09T04:06:20.808Z,18.43
2022-12-09T04:08:50.172Z,18.23
2022-12-09T04:11:18.489Z,17.87
2022-12-09T04:13:46.870Z,18.47
2022-12-09T04:16:15.583Z,17.97
2022-12-09T04:18:44.247Z,18.67
2022-12-09T04:21:15.331Z,18.30
2022-12-09T04:23:45.107Z,18.00
2022-12-09T04:26:16.335Z,19.90
2022-12-09T04:28:45.181Z,19.23
2022-12-09T04:31:14.679Z,19.03
2022-12-09T04:33:44.061Z,20.43
2022-12-09T04:36:16.584Z,18.47
2022-12-09T04:38:47.148Z,19.67
2022-12-09T04:41:16.954Z,19.27
2022-12-09T04:43:45.685Z,19.57
2022-12-09T04:46:16.977Z,19.33
2022-12-09T04:48:46.501Z,18.80
2022-12-09T04:51:17.192Z,20.10
2022-12-09T04:53:47.098Z,20.67
2022-12-09T04:56:19.094Z,18.43
2022-12-09T04:58:48.585Z,19.17
2022-12-09T05:01:24.781Z,18.20
2022-12-09T05:03:56.992Z,20.43
2022-12-09T05:06:25.851Z,19.80
2022-12-09T05:08:56.535Z,19.37
2022-12-09T05:11:25.900Z,19.10
2022-12-09T05:13:55.329Z,20.00
2022-12-09T05:16:24.090Z,19.93
2022-12-09T05:18:53.269Z,20.93
2022-12-09T05:21:23.128Z,18.87
2022-12-09T05:23:52.275Z,19.97
2022-12-09T05:26:24.457Z,18.63
2022-12-09T05:28:54.882Z,21.13
2022-12-09T05:31:24.745Z,20.23
2022-12-09T05:33:54.131Z,19.83
2022-12-09T05:36:25.479Z,19.87
2022-12-09T05:38:54.681Z,19.97
2022-12-09T05:41:25.253Z,21.10
2022-12-09T05:43:54.689Z,20.23
2022-12-09T05:46:23.468Z,21.23
2022-12-09T05:48:52.461Z,19.80
2022-12-09T05:51:25.441Z,21.30
2022-12-09T05:53:55.747Z,20.97
2022-12-09T05:56:26.703Z,21.43
2022-12-09T05:58:56.519Z,19.73
2022-12-09T06:01:26.544Z,21.13
2022-12-09T06:03:56.724Z,22.30
2022-12-09T06:06:28.051Z,22.70
2022-12-09T06:08:58.773Z,20.00
2022-12-09T06:11:29.335Z,20.70
2022-12-09T06:13:58.474Z,20.03
2022-12-09T06:16:27.329Z,21.73
2022-12-09T06:18:56.244Z,23.00
2022-12-09T06:21:25.555Z,26.90
2022-12-09T06:23:54.911Z,24.37
2022-12-09T06:26:26.412Z,24.03
2022-12-09T06:28:57.590Z,29.70
2022-12-09T06:31:26.898Z,22.93
2022-12-09T06:33:57.990Z,24.10
2022-12-09T06:36:31.406Z,23.17
2022-12-09T06:39:09.545Z,25.53
2022-12-09T06:41:40.786Z,22.77
2022-12-09T06:44:14.306Z,20.93
2022-12-09T06:46:45.662Z,22.87
2022-12-09T06:49:14.409Z,22.77
2022-12-09T06:51:42.826Z,24.07
2022-12-09T06:54:11.169Z,23.93
2022-12-09T06:56:39.739Z,24.10
2022-12-09T06:59:11.323Z,24.27
2022-12-09T07:01:40.911Z,25.30
2022-12-09T07:04:09.436Z,24.17
2022-12-09T07:06:40.247Z,24.03
2022-12-09T07:09:11.425Z,24.53
2022-12-09T07:11:40.534Z,25.43
2022-12-09T07:14:11.636Z,26.50
2022-12-09T07:16:40.750Z,25.80
2022-12-09T07:19:09.734Z,24.83
2022-12-09T07:21:38.363Z,24.30
2022-12-09T07:24:07.718Z,25.10
2022-12-09T07:26:37.079Z,23.97
2022-12-09T07:29:06.625Z,22.97
2022-12-09T07:31:37.498Z,24.27
2022-12-09T07:34:06.833Z,27.33
2022-12-09T07:36:38.058Z,25.07
2022-12-09T07:39:09.617Z,24.73
2022-12-09T07:41:38.124Z,25.10
2022-12-09T07:44:06.857Z,25.30
2022-12-09T07:46:36.647Z,26.23
2022-12-09T07:49:07.305Z,26.33
2022-12-09T07:51:36.304Z,27.13
2022-12-09T07:54:05.466Z,26.20
2022-12-09T07:56:34.383Z,24.73
2022-12-09T07:59:02.804Z,26.47
2022-12-09T08:01:31.721Z,26.43
2022-12-09T08:04:02.523Z,29.27
2022-12-09T08:06:32.213Z,28.30
2022-12-09T08:09:02.049Z,28.70
2022-12-09T08:11:33.152Z,29.50
2022-12-09T08:14:11.064Z,25.30
2022-12-09T08:16:41.867Z,26.57
2022-12-09T08:19:13.307Z,29.30
2022-12-09T08:21:42.425Z,29.60
2022-12-09T08:24:13.775Z,29.50
2022-12-09T08:26:43.293Z,28.10
2022-12-09T08:29:14.372Z,28.57
2022-12-09T08:31:47.295Z,27.83
2022-12-09T08:34:23.149Z,27.70
2022-12-09T08:36:52.954Z,28.80
2022-12-09T08:39:24.049Z,27.43
2022-12-09T08:41:52.398Z,28.53
2022-12-09T08:44:22.835Z,27.53
2022-12-09T08:46:52.989Z,28.77
2022-12-09T08:49:25.148Z,27.90
2022-12-09T08:51:54.741Z,29.00
2022-12-09T08:54:24.015Z,28.23
2022-12-09T08:56:56.254Z,27.10
2022-12-09T08:59:25.413Z,29.63
2022-12-09T09:01:54.510Z,29.43
2022-12-09T09:04:24.580Z,28.20
2022-12-09T09:06:54.181Z,30.47
2022-12-09T09:09:23.786Z,30.93
2022-12-09T09:11:52.761Z,31.47
2022-12-09T09:14:21.088Z,30.27
2022-12-09T09:16:49.994Z,29.37
2022-12-09T09:19:22.601Z,31.73
2022-12-09T09:21:53.264Z,30.27
2022-12-09T09:24:25.159Z,30.70
2022-12-09T09:26:54.779Z,33.00
2022-12-09T09:29:24.972Z,34.43
2022-12-09T09:31:55.230Z,34.50
2022-12-09T09:34:26.147Z,33.37
2022-12-09T09:36:56.870Z,32.70
2022-12-09T09:39:25.904Z,33.07
2022-12-09T09:41:57.400Z,31.70
2022-12-09T09:44:32.601Z,32.30
2022-12-09T09:47:05.424Z,32.97
2022-12-09T09:49:37.712Z,34.73
2022-12-09T09:52:12.702Z,32.57
2022-12-09T09:54:41.644Z,34.03
2022-12-09T09:57:17.276Z,35.07
2022-12-09T10:00:08.451Z,35.67
2022-12-09T10:03:01.129Z,38.37
2022-12-09T10:05:34.224Z,38.87
2022-12-09T10:08:28.021Z,41.47
2022-12-09T10:11:09.230Z,40.57
2022-12-09T10:13:49.444Z,41.70
2022-12-09T10:16:23.138Z,40.27
2022-12-09T10:19:08.188Z,41.77
2022-12-09T10:21:43.415Z,41.40
2022-12-09T10:24:25.037Z,39.13
2022-12-09T10:27:03.635Z,39.60
2022-12-09T10:29:56.769Z,39.87
2022-12-09T10:32:29.056Z,40.17
2022-12-09T10:34:59.273Z,39.33
2022-12-09T10:37:33.029Z,40.73
2022-12-09T10:40:22.125Z,41.23
2022-12-09T10:43:11.728Z,40.70
2022-12-09T10:48:39.737Z,40.93
2022-12-09T10:51:14.125Z,39.30
2022-12-09T10:53:48.725Z,38.73
2022-12-09T10:56:26.701Z,40.27
2022-12-09T10:59:11.961Z,39.80
2022-12-09T11:01:52.209Z,40.13
2022-12-09T11:04:26.343Z,38.33
2022-12-09T11:07:00.223Z,39.30
2022-12-09T11:09:32.259Z,38.50
2022-12-09T11:12:05.724Z,38.10
2022-12-09T11:14:38.257Z,39.93
2022-12-09T11:17:17.052Z,38.13
2022-12-09T11:19:51.332Z,38.50
2022-12-09T11:22:39.142Z,37.33
2022-12-09T11:25:23.801Z,39.63
2022-12-09T11:27:57.764Z,38.67
2022-12-09T11:30:29.288Z,39.90
2022-12-09T11:33:09.925Z,34.73
2022-12-09T11:35:53.653Z,37.87
2022-12-09T11:38:40.237Z,36.40
2022-12-09T11:41:41.539Z,35.90
2022-12-09T11:44:26.763Z,36.23
2022-12-09T11:47:02.450Z,37.37
2022-12-09T11:49:33.998Z,35.70
2022-12-09T11:52:24.475Z,35.23
2022-12-09T11:55:10.679Z,35.67
2022-12-09T11:57:47.945Z,37.53
2022-12-09T12:00:23.700Z,37.67
2022-12-09T12:03:04.019Z,35.43
2022-12-09T12:05:38.303Z,35.50
2022-12-09T12:08:17.745Z,37.40
2022-12-09T12:10:51.244Z,36.37
2022-12-09T12:13:24.699Z,35.93
2022-12-09T12:16:07.025Z,34.93
2022-12-09T12:18:42.815Z,33.93
2022-12-09T12:21:51.042Z,34.57
2022-12-09T12:24:42.262Z,36.13
2022-12-09T12:27:29.524Z,35.23
2022-12-09T12:30:04.999Z,35.03
2022-12-09T12:33:11.736Z,35.00
2022-12-09T12:35:56.136Z,34.30
2022-12-09T12:38:51.548Z,33.17
2022-12-09T12:41:37.585Z,31.57
2022-12-09T12:44:41.757Z,34.03
2022-12-09T12:47:25.960Z,34.37
2022-12-09T12:50:23.704Z,34.37
2022-12-09T12:53:03.397Z,32.47
2022-12-09T12:56:01.034Z,33.90
2022-12-09T12:58:47.571Z,34.40
2022-12-09T13:01:32.129Z,32.83
2022-12-09T13:04:14.143Z,33.30
2022-12-09T13:06:52.163Z,32.93
2022-12-09T13:09:26.986Z,31.37
2022-12-09T13:12:08.514Z,31.00
2022-12-09T13:14:52.837Z,30.57
2022-12-09T13:17:26.499Z,28.23
2022-12-09T13:20:00.036Z,30.30
2022-12-09T13:22:41.290Z,29.17
2022-12-09T13:25:25.568Z,27.70
2022-12-09T13:28:00.744Z,28.23
2022-12-09T13:30:39.001Z,29.60
2022-12-09T13:33:32.030Z,28.77
2022-12-09T13:36:06.794Z,29.87
2022-12-09T13:38:40.720Z,27.40
2022-12-09T13:42:05.186Z,28.27
2022-12-09T13:44:37.713Z,29.83
2022-12-09T13:47:27.836Z,29.33
2022-12-09T13:50:02.452Z,28.70
2022-12-09T13:52:56.611Z,27.87
2022-12-09T13:55:41.165Z,27.57
2022-12-09T13:59:01.885Z,27.97
2022-12-09T14:01:37.386Z,28.30
2022-12-09T14:04:14.441Z,29.67
2022-12-09T14:07:10.364Z,27.47
2022-12-09T14:09:49.082Z,28.50
2022-12-09T14:13:03.532Z,26.50
2022-12-09T14:15:39.986Z,27.60
2022-12-09T14:18:32.997Z,28.67
2022-12-09T14:21:30.605Z,29.00
2022-12-09T14:24:36.697Z,28.30
2022-12-09T14:27:19.658Z,27.67
2022-12-09T14:29:53.558Z,27.90
2022-12-09T14:32:27.677Z,27.40
2022-12-09T14:35:23.495Z,27.47
2022-12-09T14:38:16.863Z,26.93
2022-12-09T14:40:58.120Z,28.40
2022-12-09T14:43:57.593Z,26.07
2022-12-09T14:46:30.142Z,24.73
2022-12-09T14:49:03.497Z,24.93
2022-12-09T14:51:36.675Z,25.37
2022-12-09T14:54:09.426Z,25.27
2022-12-09T14:56:37.846Z,25.80
2022-12-09T14:59:19.329Z,25.47
2022-12-09T15:01:54.438Z,26.00
2022-12-09T15:04:31.851Z,25.27
2022-12-09T15:07:16.317Z,25.80
2022-12-09T15:09:57.077Z,25.57
2022-12-09T15:12:31.215Z,25.47
2022-12-09T15:15:07.171Z,25.20
2022-12-09T15:17:43.497Z,26.40
2022-12-09T15:20:28.997Z,28.17
2022-12-09T15:23:00.677Z,26.10
2022-12-09T15:25:29.678Z,28.87
2022-12-09T15:28:00.499Z,29.23
2022-12-09T15:30:35.186Z,26.93
2022-12-09T15:33:04.790Z,29.23
2022-12-09T15:35:34.562Z,28.70
2022-12-09T15:38:07.499Z,29.57
2022-12-09T15:40:38.158Z,30.00
2022-12-09T15:43:12.651Z,28.93
2022-12-09T15:45:45.322Z,30.90
2022-12-09T15:48:18.043Z,28.90
2022-12-09T15:50:51.470Z,30.53
2022-12-09T15:53:25.298Z,30.57
2022-12-09T15:55:57.885Z,31.63
2022-12-09T15:58:30.543Z,30.70
2022-12-09T16:01:00.374Z,32.23
2022-12-09T16:03:32.724Z,31.90
2022-12-09T16:06:05.256Z,33.97
2022-12-09T16:08:36.349Z,33.93
2022-12-09T16:11:05.637Z,31.70
2022-12-09T16:13:34.186Z,32.27
2022-12-09T16:16:28.284Z,31.27
2022-12-09T16:18:56.933Z,31.50
2022-12-09T16:21:29.281Z,30.70
2022-12-09T16:24:07.160Z,31.23
2022-12-09T16:26:38.756Z,28.73
2022-12-09T16:29:16.511Z,31.00
2022-12-09T16:31:46.166Z,31.50
2022-12-09T16:34:21.986Z,31.57
2022-12-09T16:36:55.919Z,30.63
2022-12-09T16:39:35.558Z,30.43
2022-12-09T16:42:04.221Z,31.50
2022-12-09T16:44:36.905Z,30.00
2022-12-09T16:47:13.796Z,28.60
2022-12-09T16:49:44.274Z,31.00
2022-12-09T16:52:15.369Z,31.80
2022-12-09T16:54:45.688Z,32.30
2022-12-09T16:57:15.694Z,30.47
2022-12-09T16:59:45.207Z,32.23
2022-12-09T17:02:26.399Z,33.67
2022-12-09T17:04:54.870Z,32.60
2022-12-09T17:07:23.093Z,33.70
2022-12-09T17:09:51.293Z,33.07
2022-12-09T17:12:19.569Z,35.20
2022-12-09T17:14:47.883Z,34.13
2022-12-09T17:17:16.156Z,34.50
2022-12-09T17:19:46.679Z,33.37
2022-12-09T17:22:14.907Z,30.30
2022-12-09T17:24:43.363Z,32.33
2022-12-09T17:27:11.588Z,31.40
2022-12-09T17:29:39.924Z,28.07
2022-12-09T17:32:08.499Z,29.63
2022-12-09T17:34:36.766Z,29.00
2022-12-09T17:37:06.934Z,25.97
2022-12-09T17:39:35.690Z,24.47
2022-12-09T17:42:03.999Z,24.20
2022-12-09T17:44:32.273Z,22.53
2022-12-09T17:47:00.604Z,24.83
2022-12-09T17:49:28.874Z,23.63
2022-12-09T17:51:57.193Z,25.70
2022-12-09T17:54:26.815Z,24.20
2022-12-09T17:56:55.043Z,27.93
2022-12-09T17:59:23.240Z,25.97
2022-12-09T18:01:51.440Z,26.53
2022-12-09T18:04:19.712Z,26.73
2022-12-09T18:06:48.220Z,26.40
2022-12-09T18:09:19.834Z,26.73
2022-12-09T18:11:51.703Z,26.00
2022-12-09T18:14:20.537Z,26.53
2022-12-09T18:16:50.117Z,25.97
2022-12-09T18:19:20.761Z,27.33
2022-12-09T18:21:50.219Z,25.10
2022-12-09T18:24:18.749Z,27.03
2022-12-09T18:26:49.694Z,25.47
2022-12-09T18:29:18.050Z,26.23
2022-12-09T18:31:50.449Z,25.27
2022-12-09T18:34:21.185Z,25.60
2022-12-09T18:36:49.461Z,24.77
2022-12-09T18:39:18.127Z,25.93
2022-12-09T18:41:47.989Z,24.63
2022-12-09T18:44:17.577Z,26.87
2022-12-09T18:46:49.217Z,26.37
2022-12-09T18:49:23.572Z,28.30
2022-12-09T18:51:53.391Z,28.60
2022-12-09T18:54:24.710Z,25.60
2022-12-09T18:56:54.923Z,28.57
2022-12-09T18:59:25.462Z,26.73
2022-12-09T19:01:54.074Z,28.17
2022-12-09T19:04:25.660Z,28.97
2022-12-09T19:06:57.299Z,27.27
2022-12-09T19:09:28.545Z,29.07
2022-12-09T19:12:11.285Z,27.27
2022-12-09T19:14:47.556Z,27.50
2022-12-09T19:17:15.812Z,28.17
2022-12-09T19:19:45.328Z,29.90
2022-12-09T19:22:13.562Z,30.93
2022-12-09T19:24:43.421Z,29.83
2022-12-09T19:27:13.946Z,30.03
2022-12-09T19:29:42.376Z,29.13
2022-12-09T19:32:36.450Z,29.70
2022-12-09T19:34:58.975Z,32.53
2022-12-09T19:37:27.272Z,32.47
2022-12-09T19:39:55.609Z,29.30
2022-12-09T19:42:25.238Z,27.43
2022-12-09T19:45:01.280Z,28.93
2022-12-09T19:47:29.964Z,28.17
2022-12-09T19:49:58.231Z,25.23
2022-12-09T19:52:27.975Z,25.30
2022-12-09T19:54:57.852Z,27.40
2022-12-09T19:57:27.524Z,26.73
2022-12-09T19:59:55.824Z,26.60
2022-12-09T20:02:24.056Z,26.97
2022-12-09T20:04:52.555Z,26.60
2022-12-09T20:07:21.533Z,27.10
2022-12-09T20:09:50.158Z,27.20
2022-12-09T20:12:18.446Z,27.30
2022-12-09T20:14:48.078Z,27.73
2022-12-09T20:17:17.385Z,30.07
2022-12-09T20:19:45.636Z,28.63
2022-12-09T20:22:13.872Z,31.40
2022-12-09T20:24:43.214Z,29.93
2022-12-09T20:27:11.529Z,29.93
2022-12-09T20:29:41.159Z,29.47
2022-12-09T20:32:11.005Z,31.43
2022-12-09T20:34:39.613Z,29.30
2022-12-09T20:37:08.028Z,29.50
2022-12-09T20:39:36.335Z,29.93
2022-12-09T20:42:04.792Z,30.93
2022-12-09T20:44:33.393Z,28.73
2022-12-09T20:47:01.666Z,31.77
2022-12-09T20:49:31.415Z,29.63
2022-12-09T20:52:05.780Z,29.63
2022-12-09T20:54:34.055Z,28.63
2022-12-09T20:57:02.306Z,28.17
2022-12-09T20:59:30.579Z,29.13
2022-12-09T21:01:58.855Z,31.00
2022-12-09T21:04:27.140Z,28.70
2022-12-09T21:06:57.364Z,28.87
2022-12-09T21:09:27.232Z,30.37
2022-12-09T21:11:55.524Z,31.03
2022-12-09T21:14:29.416Z,29.43
2022-12-09T21:17:00.818Z,27.93
2022-12-09T21:19:30.413Z,30.53
2022-12-09T21:22:00.127Z,29.90
2022-12-09T21:24:28.681Z,29.27
2022-12-09T21:26:57.288Z,31.33
2022-12-09T21:29:31.731Z,30.70
2022-12-09T21:32:01.706Z,31.23
2022-12-09T21:34:30.142Z,30.83
2022-12-09T21:36:59.789Z,32.07
2022-12-09T21:39:29.122Z,30.43
2022-12-09T21:41:57.501Z,31.53
2022-12-09T21:44:27.261Z,31.37
2022-12-09T21:46:55.634Z,31.87
2022-12-09T21:49:24.059Z,32.40
2022-12-09T21:51:52.384Z,31.57
2022-12-09T21:54:22.017Z,30.80
2022-12-09T21:56:50.494Z,30.83
2022-12-09T21:59:19.081Z,31.63
2022-12-09T22:01:47.519Z,30.27
2022-12-09T22:04:17.376Z,30.93
2022-12-09T22:06:49.559Z,30.40
2022-12-09T22:09:21.652Z,33.37
2022-12-09T22:11:50.143Z,29.33
2022-12-09T22:14:18.684Z,30.87
2022-12-09T22:16:47.466Z,30.20
2022-12-09T22:19:21.037Z,30.73
2022-12-09T22:21:51.109Z,30.73
2022-12-09T22:24:21.386Z,30.63
2022-12-09T22:26:49.710Z,30.73
2022-12-09T22:29:19.874Z,29.87
2022-12-09T22:31:48.643Z,30.33
2022-12-09T22:34:19.910Z,29.73
2022-12-09T22:36:49.401Z,27.20
2022-12-09T22:39:22.111Z,29.93
2022-12-09T22:41:50.934Z,32.10
2022-12-09T22:44:21.008Z,29.53
2022-12-09T22:46:49.990Z,29.77
2022-12-09T22:49:18.699Z,29.00
2022-12-09T22:51:47.836Z,32.03
2022-12-09T22:54:16.592Z,31.37
2022-12-09T22:56:46.364Z,30.17
2022-12-09T22:59:16.054Z,31.13
2022-12-09T23:01:48.499Z,31.90
2022-12-09T23:04:21.657Z,33.80
2022-12-09T23:06:51.136Z,31.50
2022-12-09T23:09:22.435Z,32.20
2022-12-09T23:11:53.386Z,30.20
2022-12-09T23:14:21.862Z,31.10
2022-12-09T23:16:50.352Z,31.03
2022-12-09T23:19:18.586Z,29.83
2022-12-09T23:21:47.119Z,33.03
2022-12-09T23:24:24.704Z,33.17
2022-12-09T23:26:56.742Z,31.30
2022-12-09T23:29:25.086Z,30.53
2022-12-09T23:31:53.574Z,31.87
2022-12-09T23:34:21.811Z,30.93
2022-12-09T23:36:50.089Z,30.77
2022-12-09T23:39:20.147Z,31.33
2022-12-09T23:41:49.389Z,30.07
2022-12-09T23:44:20.120Z,31.93
2022-12-09T23:46:48.558Z,32.67
2022-12-09T23:49:17.707Z,30.10
2022-12-09T23:51:46.248Z,30.77
2022-12-09T23:54:16.762Z,30.60
2022-12-09T23:56:50.267Z,30.90
2022-12-09T23:59:22.703Z,31.67
